sensor_id;sensor_type;location;lat;lon;timestamp;P1;durP1;ratioP1;P2;durP2;ratioP2
77736;SDS011;66903;59.926;30.404;2023-07-22T00:04:43;3.40;;;0.90;;
77736;SDS011;66903;59.926;30.404;2023-07-22T00:09:43;2.00;;;0.60;;
77736;SDS011;66903;59.926;30.404;2023-07-22T00:14:44;1.73;;;0.60;;
77736;SDS011;66903;59.926;30.404;2023-07-22T00:19:44;2.88;;;0.60;;
77736;SDS011;66903;59.926;30.404;2023-07-22T00:24:45;1.50;;;0.65;;
77736;SDS011;66903;59.926;30.404;2023-07-22T00:29:45;1.48;;;0.60;;
77736;SDS011;66903;59.926;30.404;2023-07-22T00:34:46;1.45;;;0.50;;
77736;SDS011;66903;59.926;30.404;2023-07-22T00:39:46;2.97;;;0.73;;
77736;SDS011;66903;59.926;30.404;2023-07-22T00:44:47;1.85;;;0.60;;
77736;SDS011;66903;59.926;30.404;2023-07-22T00:49:48;1.05;;;0.50;;
77736;SDS011;66903;59.926;30.404;2023-07-22T00:54:49;2.92;;;0.75;;
77736;SDS011;66903;59.926;30.404;2023-07-22T00:59:50;3.42;;;0.70;;
77736;SDS011;66903;59.926;30.404;2023-07-22T01:04:51;4.95;;;0.60;;
77736;SDS011;66903;59.926;30.404;2023-07-22T01:09:55;4.03;;;0.70;;
77736;SDS011;66903;59.926;30.404;2023-07-22T01:14:56;1.58;;;0.40;;
77736;SDS011;66903;59.926;30.404;2023-07-22T01:19:58;1.90;;;0.70;;
77736;SDS011;66903;59.926;30.404;2023-07-22T01:24:58;2.13;;;0.55;;
77736;SDS011;66903;59.926;30.404;2023-07-22T01:30:00;3.08;;;0.60;;
77736;SDS011;66903;59.926;30.404;2023-07-22T01:35:02;2.97;;;0.60;;
77736;SDS011;66903;59.926;30.404;2023-07-22T01:40:03;2.92;;;0.73;;
77736;SDS011;66903;59.926;30.404;2023-07-22T01:45:14;1.55;;;0.60;;
77736;SDS011;66903;59.926;30.404;2023-07-22T01:50:14;1.90;;;0.70;;
77736;SDS011;66903;59.926;30.404;2023-07-22T01:55:16;3.85;;;1.00;;
77736;SDS011;66903;59.926;30.404;2023-07-22T02:00:16;2.08;;;0.70;;
77736;SDS011;66903;59.926;30.404;2023-07-22T02:05:17;2.25;;;0.88;;
77736;SDS011;66903;59.926;30.404;2023-07-22T02:10:18;1.70;;;0.60;;
77736;SDS011;66903;59.926;30.404;2023-07-22T02:15:18;2.35;;;0.73;;
77736;SDS011;66903;59.926;30.404;2023-07-22T02:20:19;1.85;;;0.70;;
77736;SDS011;66903;59.926;30.404;2023-07-22T02:25:20;2.08;;;0.85;;
77736;SDS011;66903;59.926;30.404;2023-07-22T02:30:20;4.00;;;1.08;;
77736;SDS011;66903;59.926;30.404;2023-07-22T02:35:21;1.80;;;0.60;;
77736;SDS011;66903;59.926;30.404;2023-07-22T02:40:21;3.72;;;0.70;;
77736;SDS011;66903;59.926;30.404;2023-07-22T02:45:22;2.40;;;0.80;;
77736;SDS011;66903;59.926;30.404;2023-07-22T02:50:22;2.22;;;0.82;;
77736;SDS011;66903;59.926;30.404;2023-07-22T02:55:23;2.10;;;0.70;;
77736;SDS011;66903;59.926;30.404;2023-07-22T03:00:23;2.85;;;0.93;;
77736;SDS011;66903;59.926;30.404;2023-07-22T03:05:24;3.50;;;1.05;;
77736;SDS011;66903;59.926;30.404;2023-07-22T03:10:26;4.75;;;0.80;;
77736;SDS011;66903;59.926;30.404;2023-07-22T03:15:26;2.45;;;0.80;;
77736;SDS011;66903;59.926;30.404;2023-07-22T03:20:28;4.82;;;0.82;;
77736;SDS011;66903;59.926;30.404;2023-07-22T03:25:29;4.43;;;1.42;;
77736;SDS011;66903;59.926;30.404;2023-07-22T03:30:29;4.28;;;0.95;;
77736;SDS011;66903;59.926;30.404;2023-07-22T03:35:30;2.63;;;0.85;;
77736;SDS011;66903;59.926;30.404;2023-07-22T03:40:33;2.03;;;0.75;;
77736;SDS011;66903;59.926;30.404;2023-07-22T03:45:33;2.55;;;0.90;;
77736;SDS011;66903;59.926;30.404;2023-07-22T03:50:34;1.88;;;0.65;;
77736;SDS011;66903;59.926;30.404;2023-07-22T03:55:34;2.42;;;0.90;;
77736;SDS011;66903;59.926;30.404;2023-07-22T04:00:35;2.28;;;0.80;;
77736;SDS011;66903;59.926;30.404;2023-07-22T04:05:37;2.22;;;0.70;;
77736;SDS011;66903;59.926;30.404;2023-07-22T04:10:38;1.60;;;0.80;;
77736;SDS011;66903;59.926;30.404;2023-07-22T04:15:38;2.33;;;0.90;;
77736;SDS011;66903;59.926;30.404;2023-07-22T04:20:39;2.35;;;0.88;;
77736;SDS011;66903;59.926;30.404;2023-07-22T04:25:41;2.88;;;0.82;;
77736;SDS011;66903;59.926;30.404;2023-07-22T04:30:54;2.92;;;0.90;;
77736;SDS011;66903;59.926;30.404;2023-07-22T04:35:57;2.30;;;0.85;;
77736;SDS011;66903;59.926;30.404;2023-07-22T04:40:58;2.92;;;0.88;;
77736;SDS011;66903;59.926;30.404;2023-07-22T04:46:02;2.50;;;0.90;;
77736;SDS011;66903;59.926;30.404;2023-07-22T04:51:02;2.67;;;0.75;;
77736;SDS011;66903;59.926;30.404;2023-07-22T04:56:03;3.70;;;0.80;;
77736;SDS011;66903;59.926;30.404;2023-07-22T05:01:04;2.05;;;0.68;;
77736;SDS011;66903;59.926;30.404;2023-07-22T05:06:04;1.90;;;0.70;;
77736;SDS011;66903;59.926;30.404;2023-07-22T05:11:06;2.25;;;0.70;;
77736;SDS011;66903;59.926;30.404;2023-07-22T05:16:07;2.88;;;1.00;;
77736;SDS011;66903;59.926;30.404;2023-07-22T05:21:08;2.05;;;0.77;;
77736;SDS011;66903;59.926;30.404;2023-07-22T05:26:08;2.65;;;0.88;;
77736;SDS011;66903;59.926;30.404;2023-07-22T05:31:09;10.40;;;1.25;;
77736;SDS011;66903;59.926;30.404;2023-07-22T05:36:09;4.00;;;0.90;;
77736;SDS011;66903;59.926;30.404;2023-07-22T05:41:10;2.25;;;0.85;;
77736;SDS011;66903;59.926;30.404;2023-07-22T05:46:11;4.00;;;0.80;;
77736;SDS011;66903;59.926;30.404;2023-07-22T05:51:12;5.53;;;1.63;;
77736;SDS011;66903;59.926;30.404;2023-07-22T05:56:12;5.10;;;0.98;;
77736;SDS011;66903;59.926;30.404;2023-07-22T06:01:13;2.63;;;0.80;;
77736;SDS011;66903;59.926;30.404;2023-07-22T06:06:14;6.97;;;1.00;;
77736;SDS011;66903;59.926;30.404;2023-07-22T06:11:15;9.05;;;1.02;;
77736;SDS011;66903;59.926;30.404;2023-07-22T06:16:16;3.00;;;1.20;;
77736;SDS011;66903;59.926;30.404;2023-07-22T06:21:16;2.40;;;0.70;;
77736;SDS011;66903;59.926;30.404;2023-07-22T06:26:17;2.40;;;0.80;;
77736;SDS011;66903;59.926;30.404;2023-07-22T06:31:17;4.03;;;1.00;;
77736;SDS011;66903;59.926;30.404;2023-07-22T06:36:18;2.47;;;0.90;;
77736;SDS011;66903;59.926;30.404;2023-07-22T06:41:19;3.25;;;0.75;;
77736;SDS011;66903;59.926;30.404;2023-07-22T06:46:19;2.13;;;0.70;;
77736;SDS011;66903;59.926;30.404;2023-07-22T06:51:21;3.72;;;1.00;;
77736;SDS011;66903;59.926;30.404;2023-07-22T06:56:21;2.22;;;0.70;;
77736;SDS011;66903;59.926;30.404;2023-07-22T07:01:22;3.00;;;1.17;;
77736;SDS011;66903;59.926;30.404;2023-07-22T07:06:22;5.30;;;1.10;;
77736;SDS011;66903;59.926;30.404;2023-07-22T07:11:23;1.83;;;0.77;;
77736;SDS011;66903;59.926;30.404;2023-07-22T07:16:25;4.03;;;1.00;;
77736;SDS011;66903;59.926;30.404;2023-07-22T07:21:27;2.45;;;1.00;;
77736;SDS011;66903;59.926;30.404;2023-07-22T07:26:28;3.92;;;0.98;;
77736;SDS011;66903;59.926;30.404;2023-07-22T07:31:28;3.78;;;1.00;;
77736;SDS011;66903;59.926;30.404;2023-07-22T07:36:29;4.95;;;1.08;;
77736;SDS011;66903;59.926;30.404;2023-07-22T07:41:30;2.65;;;0.80;;
77736;SDS011;66903;59.926;30.404;2023-07-22T07:46:30;4.65;;;0.98;;
77736;SDS011;66903;59.926;30.404;2023-07-22T07:51:31;2.42;;;0.82;;
77736;SDS011;66903;59.926;30.404;2023-07-22T07:56:32;2.33;;;0.90;;
77736;SDS011;66903;59.926;30.404;2023-07-22T08:01:32;4.07;;;1.08;;
77736;SDS011;66903;59.926;30.404;2023-07-22T08:06:33;2.78;;;0.63;;
77736;SDS011;66903;59.926;30.404;2023-07-22T08:11:34;5.03;;;0.80;;
77736;SDS011;66903;59.926;30.404;2023-07-22T08:16:34;1.95;;;0.43;;
77736;SDS011;66903;59.926;30.404;2023-07-22T08:21:35;2.03;;;0.60;;
77736;SDS011;66903;59.926;30.404;2023-07-22T08:26:35;2.47;;;0.70;;
77736;SDS011;66903;59.926;30.404;2023-07-22T08:31:36;15.05;;;1.35;;
77736;SDS011;66903;59.926;30.404;2023-07-22T08:36:36;2.13;;;0.73;;
77736;SDS011;66903;59.926;30.404;2023-07-22T08:41:37;4.50;;;0.60;;
77736;SDS011;66903;59.926;30.404;2023-07-22T08:46:39;1.95;;;0.60;;
77736;SDS011;66903;59.926;30.404;2023-07-22T08:51:41;0.40;;;0.30;;
77736;SDS011;66903;59.926;30.404;2023-07-22T08:56:44;1.20;;;0.63;;
77736;SDS011;66903;59.926;30.404;2023-07-22T09:01:46;2.33;;;0.70;;
77736;SDS011;66903;59.926;30.404;2023-07-22T09:06:48;1.15;;;0.50;;
77736;SDS011;66903;59.926;30.404;2023-07-22T09:11:49;1.50;;;0.60;;
77736;SDS011;66903;59.926;30.404;2023-07-22T09:16:51;1.55;;;0.65;;
77736;SDS011;66903;59.926;30.404;2023-07-22T09:21:52;2.13;;;0.63;;
77736;SDS011;66903;59.926;30.404;2023-07-22T09:26:52;1.17;;;0.50;;
77736;SDS011;66903;59.926;30.404;2023-07-22T09:31:53;2.42;;;0.70;;
77736;SDS011;66903;59.926;30.404;2023-07-22T09:36:58;1.88;;;0.55;;
77736;SDS011;66903;59.926;30.404;2023-07-22T09:42:03;1.52;;;0.60;;
77736;SDS011;66903;59.926;30.404;2023-07-22T09:47:06;2.53;;;0.65;;
77736;SDS011;66903;59.926;30.404;2023-07-22T09:52:11;1.52;;;0.57;;
77736;SDS011;66903;59.926;30.404;2023-07-22T09:57:14;2.25;;;0.65;;
77736;SDS011;66903;59.926;30.404;2023-07-22T10:02:15;4.10;;;0.95;;
77736;SDS011;66903;59.926;30.404;2023-07-22T10:07:19;2.67;;;0.75;;
77736;SDS011;66903;59.926;30.404;2023-07-22T10:12:21;1.75;;;0.60;;
77736;SDS011;66903;59.926;30.404;2023-07-22T10:17:22;1.73;;;0.45;;
77736;SDS011;66903;59.926;30.404;2023-07-22T10:22:22;2.30;;;0.55;;
77736;SDS011;66903;59.926;30.404;2023-07-22T10:27:24;1.38;;;0.60;;
77736;SDS011;66903;59.926;30.404;2023-07-22T10:32:31;2.65;;;0.70;;
77736;SDS011;66903;59.926;30.404;2023-07-22T10:37:42;2.33;;;0.60;;
77736;SDS011;66903;59.926;30.404;2023-07-22T10:48:12;1.45;;;0.60;;
77736;SDS011;66903;59.926;30.404;2023-07-22T10:53:14;3.55;;;0.60;;
77736;SDS011;66903;59.926;30.404;2023-07-22T10:58:20;2.65;;;0.60;;
77736;SDS011;66903;59.926;30.404;2023-07-22T11:03:21;4.55;;;1.00;;
77736;SDS011;66903;59.926;30.404;2023-07-22T11:08:37;2.30;;;0.60;;
77736;SDS011;66903;59.926;30.404;2023-07-22T11:13:40;0.63;;;0.40;;
77736;SDS011;66903;59.926;30.404;2023-07-22T11:18:41;2.30;;;0.88;;
77736;SDS011;66903;59.926;30.404;2023-07-22T11:23:42;2.97;;;0.68;;
77736;SDS011;66903;59.926;30.404;2023-07-22T11:28:42;2.67;;;0.90;;
77736;SDS011;66903;59.926;30.404;2023-07-22T11:33:46;2.75;;;0.77;;
77736;SDS011;66903;59.926;30.404;2023-07-22T11:38:47;3.30;;;0.90;;
77736;SDS011;66903;59.926;30.404;2023-07-22T11:43:48;2.70;;;1.23;;
77736;SDS011;66903;59.926;30.404;2023-07-22T11:48:49;5.68;;;0.68;;
77736;SDS011;66903;59.926;30.404;2023-07-22T11:53:51;1.52;;;0.63;;
77736;SDS011;66903;59.926;30.404;2023-07-22T11:58:54;2.40;;;0.80;;
77736;SDS011;66903;59.926;30.404;2023-07-22T12:03:56;2.22;;;0.77;;
77736;SDS011;66903;59.926;30.404;2023-07-22T12:08:56;2.33;;;0.80;;
77736;SDS011;66903;59.926;30.404;2023-07-22T12:14:10;2.40;;;0.68;;
77736;SDS011;66903;59.926;30.404;2023-07-22T12:19:12;2.30;;;0.75;;
77736;SDS011;66903;59.926;30.404;2023-07-22T12:24:13;2.10;;;0.73;;
77736;SDS011;66903;59.926;30.404;2023-07-22T12:29:14;4.25;;;1.05;;
77736;SDS011;66903;59.926;30.404;2023-07-22T12:34:15;1.77;;;0.60;;
77736;SDS011;66903;59.926;30.404;2023-07-22T12:39:15;1.38;;;0.50;;
77736;SDS011;66903;59.926;30.404;2023-07-22T12:44:16;2.30;;;0.65;;
77736;SDS011;66903;59.926;30.404;2023-07-22T12:49:16;1.70;;;0.50;;
77736;SDS011;66903;59.926;30.404;2023-07-22T12:54:17;2.20;;;0.60;;
77736;SDS011;66903;59.926;30.404;2023-07-22T12:59:18;1.50;;;0.70;;
77736;SDS011;66903;59.926;30.404;2023-07-22T13:04:18;1.77;;;0.70;;
77736;SDS011;66903;59.926;30.404;2023-07-22T13:09:19;2.35;;;0.63;;
77736;SDS011;66903;59.926;30.404;2023-07-22T13:14:20;1.73;;;0.70;;
77736;SDS011;66903;59.926;30.404;2023-07-22T13:19:21;1.13;;;0.60;;
77736;SDS011;66903;59.926;30.404;2023-07-22T13:24:21;1.20;;;0.60;;
77736;SDS011;66903;59.926;30.404;2023-07-22T13:29:22;1.67;;;0.65;;
77736;SDS011;66903;59.926;30.404;2023-07-22T13:34:22;1.88;;;0.68;;
77736;SDS011;66903;59.926;30.404;2023-07-22T13:39:23;2.00;;;0.70;;
77736;SDS011;66903;59.926;30.404;2023-07-22T13:44:23;2.15;;;0.77;;
77736;SDS011;66903;59.926;30.404;2023-07-22T13:49:24;2.53;;;0.57;;
77736;SDS011;66903;59.926;30.404;2023-07-22T13:54:25;1.75;;;0.63;;
77736;SDS011;66903;59.926;30.404;2023-07-22T13:59:25;2.28;;;0.70;;
77736;SDS011;66903;59.926;30.404;2023-07-22T14:04:26;1.77;;;0.70;;
77736;SDS011;66903;59.926;30.404;2023-07-22T14:09:26;1.88;;;0.70;;
77736;SDS011;66903;59.926;30.404;2023-07-22T14:14:27;2.50;;;0.77;;
77736;SDS011;66903;59.926;30.404;2023-07-22T14:19:30;3.58;;;0.90;;
77736;SDS011;66903;59.926;30.404;2023-07-22T14:24:30;3.30;;;0.80;;
77736;SDS011;66903;59.926;30.404;2023-07-22T14:29:31;2.80;;;0.90;;
77736;SDS011;66903;59.926;30.404;2023-07-22T14:34:31;2.38;;;0.77;;
77736;SDS011;66903;59.926;30.404;2023-07-22T14:39:32;2.58;;;0.80;;
77736;SDS011;66903;59.926;30.404;2023-07-22T14:44:33;4.57;;;1.00;;
77736;SDS011;66903;59.926;30.404;2023-07-22T14:49:33;3.30;;;0.80;;
77736;SDS011;66903;59.926;30.404;2023-07-22T14:54:34;4.97;;;1.10;;
77736;SDS011;66903;59.926;30.404;2023-07-22T14:59:34;4.15;;;0.90;;
77736;SDS011;66903;59.926;30.404;2023-07-22T15:04:35;2.83;;;0.90;;
77736;SDS011;66903;59.926;30.404;2023-07-22T15:09:36;2.65;;;0.85;;
77736;SDS011;66903;59.926;30.404;2023-07-22T15:14:36;3.25;;;0.77;;
77736;SDS011;66903;59.926;30.404;2023-07-22T15:19:38;4.13;;;0.90;;
77736;SDS011;66903;59.926;30.404;2023-07-22T15:24:38;2.70;;;0.63;;
77736;SDS011;66903;59.926;30.404;2023-07-22T15:29:40;2.20;;;0.70;;
77736;SDS011;66903;59.926;30.404;2023-07-22T15:34:40;2.30;;;0.70;;
77736;SDS011;66903;59.926;30.404;2023-07-22T15:39:41;3.70;;;1.15;;
77736;SDS011;66903;59.926;30.404;2023-07-22T15:44:42;2.67;;;0.65;;
77736;SDS011;66903;59.926;30.404;2023-07-22T15:49:42;2.03;;;0.70;;
77736;SDS011;66903;59.926;30.404;2023-07-22T15:54:43;1.83;;;0.70;;
77736;SDS011;66903;59.926;30.404;2023-07-22T15:59:43;1.48;;;0.60;;
77736;SDS011;66903;59.926;30.404;2023-07-22T16:04:44;3.60;;;1.10;;
77736;SDS011;66903;59.926;30.404;2023-07-22T16:09:45;7.57;;;1.75;;
77736;SDS011;66903;59.926;30.404;2023-07-22T16:14:45;1.75;;;0.55;;
77736;SDS011;66903;59.926;30.404;2023-07-22T16:19:46;2.70;;;0.70;;
77736;SDS011;66903;59.926;30.404;2023-07-22T16:24:46;2.78;;;0.93;;
77736;SDS011;66903;59.926;30.404;2023-07-22T16:29:47;2.70;;;0.82;;
77736;SDS011;66903;59.926;30.404;2023-07-22T16:34:48;2.85;;;0.88;;
77736;SDS011;66903;59.926;30.404;2023-07-22T16:39:48;4.93;;;0.90;;
77736;SDS011;66903;59.926;30.404;2023-07-22T16:44:49;2.95;;;0.77;;
77736;SDS011;66903;59.926;30.404;2023-07-22T16:49:49;2.70;;;0.90;;
77736;SDS011;66903;59.926;30.404;2023-07-22T16:54:52;2.83;;;0.80;;
77736;SDS011;66903;59.926;30.404;2023-07-22T16:59:53;1.95;;;0.60;;
77736;SDS011;66903;59.926;30.404;2023-07-22T17:04:53;1.83;;;0.70;;
77736;SDS011;66903;59.926;30.404;2023-07-22T17:09:54;3.78;;;0.80;;
77736;SDS011;66903;59.926;30.404;2023-07-22T17:14:54;3.75;;;0.70;;
77736;SDS011;66903;59.926;30.404;2023-07-22T17:19:55;4.35;;;0.85;;
77736;SDS011;66903;59.926;30.404;2023-07-22T17:24:55;1.98;;;0.70;;
77736;SDS011;66903;59.926;30.404;2023-07-22T17:29:56;1.63;;;0.63;;
77736;SDS011;66903;59.926;30.404;2023-07-22T17:34:56;2.63;;;0.80;;
77736;SDS011;66903;59.926;30.404;2023-07-22T17:39:57;1.73;;;0.57;;
77736;SDS011;66903;59.926;30.404;2023-07-22T17:44:59;2.10;;;0.70;;
77736;SDS011;66903;59.926;30.404;2023-07-22T17:49:59;1.52;;;0.60;;
77736;SDS011;66903;59.926;30.404;2023-07-22T17:55:00;1.85;;;0.60;;
77736;SDS011;66903;59.926;30.404;2023-07-22T18:00:00;10.05;;;1.00;;
77736;SDS011;66903;59.926;30.404;2023-07-22T18:05:01;5.13;;;1.27;;
77736;SDS011;66903;59.926;30.404;2023-07-22T18:10:02;12.15;;;1.13;;
77736;SDS011;66903;59.926;30.404;2023-07-22T18:15:03;16.00;;;1.27;;
77736;SDS011;66903;59.926;30.404;2023-07-22T18:20:04;4.25;;;1.42;;
77736;SDS011;66903;59.926;30.404;2023-07-22T18:25:06;4.43;;;0.93;;
77736;SDS011;66903;59.926;30.404;2023-07-22T18:30:07;2.83;;;1.10;;
77736;SDS011;66903;59.926;30.404;2023-07-22T18:35:07;2.67;;;1.00;;
77736;SDS011;66903;59.926;30.404;2023-07-22T18:40:09;3.10;;;1.00;;
77736;SDS011;66903;59.926;30.404;2023-07-22T18:45:10;6.25;;;1.27;;
77736;SDS011;66903;59.926;30.404;2023-07-22T18:50:11;3.30;;;1.10;;
77736;SDS011;66903;59.926;30.404;2023-07-22T18:55:12;2.17;;;0.63;;
77736;SDS011;66903;59.926;30.404;2023-07-22T19:00:12;3.50;;;0.98;;
77736;SDS011;66903;59.926;30.404;2023-07-22T19:05:13;2.03;;;0.80;;
77736;SDS011;66903;59.926;30.404;2023-07-22T19:10:14;3.30;;;1.05;;
77736;SDS011;66903;59.926;30.404;2023-07-22T19:15:15;3.05;;;1.00;;
77736;SDS011;66903;59.926;30.404;2023-07-22T19:20:15;2.42;;;0.85;;
77736;SDS011;66903;59.926;30.404;2023-07-22T19:25:16;3.78;;;1.00;;
77736;SDS011;66903;59.926;30.404;2023-07-22T19:30:16;2.83;;;0.88;;
77736;SDS011;66903;59.926;30.404;2023-07-22T19:35:17;2.40;;;0.80;;
77736;SDS011;66903;59.926;30.404;2023-07-22T19:40:19;2.80;;;0.70;;
77736;SDS011;66903;59.926;30.404;2023-07-22T19:45:19;3.53;;;0.88;;
77736;SDS011;66903;59.926;30.404;2023-07-22T19:50:20;3.30;;;1.00;;
77736;SDS011;66903;59.926;30.404;2023-07-22T19:55:22;6.13;;;1.02;;
77736;SDS011;66903;59.926;30.404;2023-07-22T20:00:23;2.70;;;0.93;;
77736;SDS011;66903;59.926;30.404;2023-07-22T20:05:23;5.70;;;1.15;;
77736;SDS011;66903;59.926;30.404;2023-07-22T20:10:24;3.50;;;0.90;;
77736;SDS011;66903;59.926;30.404;2023-07-22T20:15:24;4.90;;;1.17;;
77736;SDS011;66903;59.926;30.404;2023-07-22T20:20:25;3.28;;;1.13;;
77736;SDS011;66903;59.926;30.404;2023-07-22T20:25:26;2.97;;;1.13;;
77736;SDS011;66903;59.926;30.404;2023-07-22T20:30:27;3.65;;;0.90;;
77736;SDS011;66903;59.926;30.404;2023-07-22T20:35:27;2.58;;;0.85;;
77736;SDS011;66903;59.926;30.404;2023-07-22T20:40:28;6.78;;;1.02;;
77736;SDS011;66903;59.926;30.404;2023-07-22T20:45:29;3.42;;;1.10;;
77736;SDS011;66903;59.926;30.404;2023-07-22T20:50:29;2.78;;;0.82;;
77736;SDS011;66903;59.926;30.404;2023-07-22T20:55:30;2.90;;;0.98;;
77736;SDS011;66903;59.926;30.404;2023-07-22T21:00:30;2.65;;;0.98;;
77736;SDS011;66903;59.926;30.404;2023-07-22T21:05:31;2.97;;;1.08;;
77736;SDS011;66903;59.926;30.404;2023-07-22T21:10:32;6.55;;;1.13;;
77736;SDS011;66903;59.926;30.404;2023-07-22T21:15:32;3.03;;;1.13;;
77736;SDS011;66903;59.926;30.404;2023-07-22T21:20:35;3.25;;;1.00;;
77736;SDS011;66903;59.926;30.404;2023-07-22T21:25:36;5.03;;;1.10;;
77736;SDS011;66903;59.926;30.404;2023-07-22T21:30:36;3.70;;;1.40;;
77736;SDS011;66903;59.926;30.404;2023-07-22T21:35:37;4.78;;;1.10;;
77736;SDS011;66903;59.926;30.404;2023-07-22T21:40:38;5.97;;;1.00;;
77736;SDS011;66903;59.926;30.404;2023-07-22T21:45:38;5.75;;;1.08;;
77736;SDS011;66903;59.926;30.404;2023-07-22T21:50:39;5.40;;;1.30;;
77736;SDS011;66903;59.926;30.404;2023-07-22T21:55:39;3.70;;;1.10;;
77736;SDS011;66903;59.926;30.404;2023-07-22T22:00:40;3.70;;;1.02;;
77736;SDS011;66903;59.926;30.404;2023-07-22T22:05:41;4.05;;;1.25;;
77736;SDS011;66903;59.926;30.404;2023-07-22T22:10:42;4.70;;;1.42;;
77736;SDS011;66903;59.926;30.404;2023-07-22T22:15:45;3.45;;;1.25;;
77736;SDS011;66903;59.926;30.404;2023-07-22T22:20:45;8.73;;;1.35;;
77736;SDS011;66903;59.926;30.404;2023-07-22T22:25:46;4.63;;;1.23;;
77736;SDS011;66903;59.926;30.404;2023-07-22T22:30:46;3.70;;;1.33;;
77736;SDS011;66903;59.926;30.404;2023-07-22T22:35:47;9.25;;;1.50;;
77736;SDS011;66903;59.926;30.404;2023-07-22T22:40:47;2.53;;;1.17;;
77736;SDS011;66903;59.926;30.404;2023-07-22T22:45:48;3.35;;;1.15;;
77736;SDS011;66903;59.926;30.404;2023-07-22T22:50:49;3.67;;;1.60;;
77736;SDS011;66903;59.926;30.404;2023-07-22T22:55:49;4.78;;;1.67;;
77736;SDS011;66903;59.926;30.404;2023-07-22T23:00:53;3.58;;;1.40;;
77736;SDS011;66903;59.926;30.404;2023-07-22T23:05:53;4.00;;;1.30;;
77736;SDS011;66903;59.926;30.404;2023-07-22T23:10:54;4.43;;;1.60;;
77736;SDS011;66903;59.926;30.404;2023-07-22T23:15:54;4.95;;;1.45;;
77736;SDS011;66903;59.926;30.404;2023-07-22T23:20:55;5.22;;;1.75;;
77736;SDS011;66903;59.926;30.404;2023-07-22T23:25:56;3.92;;;1.40;;
77736;SDS011;66903;59.926;30.404;2023-07-22T23:30:57;4.68;;;1.35;;
77736;SDS011;66903;59.926;30.404;2023-07-22T23:35:59;5.20;;;1.80;;
77736;SDS011;66903;59.926;30.404;2023-07-22T23:41:02;5.40;;;1.60;;
77736;SDS011;66903;59.926;30.404;2023-07-22T23:46:03;5.22;;;1.50;;
77736;SDS011;66903;59.926;30.404;2023-07-22T23:51:04;3.83;;;1.42;;
77736;SDS011;66903;59.926;30.404;2023-07-22T23:56:04;3.90;;;1.50;;
